sensor_id;sensor_type;location;lat;lon;timestamp;pressure;altitude;pressure_sealevel;temperature;humidity
48796;BME280;34607;48.520;-1.330;2022-12-10T08:02:44;99805.28;;;-0.81;90.92
48796;BME280;34607;48.520;-1.330;2022-12-10T08:05:11;99810.94;;;-0.70;90.77
48796;BME280;34607;48.520;-1.330;2022-12-10T08:07:38;99811.19;;;-0.66;90.74
48796;BME280;34607;48.520;-1.330;2022-12-10T08:10:06;99810.25;;;-0.51;90.86
48796;BME280;34607;48.520;-1.330;2022-12-10T08:12:33;99821.59;;;-0.45;91.02
48796;BME280;34607;48.520;-1.330;2022-12-10T08:15:01;99820.22;;;-0.38;90.85
48796;BME280;34607;48.520;-1.330;2022-12-10T08:17:29;99827.88;;;-0.38;90.84
48796;BME280;34607;48.520;-1.330;2022-12-10T08:19:58;99786.94;;;-0.59;90.64
48796;BME280;34607;48.520;-1.330;2022-12-10T08:22:25;99825.25;;;-0.40;91.03
48796;BME280;34607;48.520;-1.330;2022-12-10T08:24:52;99827.25;;;-0.50;91.95
48796;BME280;34607;48.520;-1.330;2022-12-10T08:27:19;99839.47;;;-0.43;92.55
48796;BME280;34607;48.520;-1.330;2022-12-10T08:29:46;99837.41;;;-0.34;92.97
48796;BME280;34607;48.520;-1.330;2022-12-10T08:32:13;99839.81;;;-0.21;93.03
48796;BME280;34607;48.520;-1.330;2022-12-10T08:34:40;99838.91;;;-0.05;92.77
48796;BME280;34607;48.520;-1.330;2022-12-10T08:37:10;99836.72;;;0.03;93.06
48796;BME280;34607;48.520;-1.330;2022-12-10T08:39:37;99850.06;;;0.15;92.47
48796;BME280;34607;48.520;-1.330;2022-12-10T08:42:06;99851.50;;;0.10;92.81
48796;BME280;34607;48.520;-1.330;2022-12-10T08:44:33;99859.41;;;-0.02;93.68
48796;BME280;34607;48.520;-1.330;2022-12-10T08:47:00;99855.44;;;0.04;93.80
48796;BME280;34607;48.520;-1.330;2022-12-10T08:49:27;99854.03;;;0.10;94.00
48796;BME280;34607;48.520;-1.330;2022-12-10T08:51:54;99854.13;;;0.12;94.46
48796;BME280;34607;48.520;-1.330;2022-12-10T08:54:23;99850.72;;;0.11;94.24
48796;BME280;34607;48.520;-1.330;2022-12-10T08:56:50;99851.38;;;0.07;94.87
48796;BME280;34607;48.520;-1.330;2022-12-10T08:59:17;99850.00;;;0.14;95.18
48796;BME280;34607;48.520;-1.330;2022-12-10T09:01:44;99852.84;;;0.20;94.79
48796;BME280;34607;48.520;-1.330;2022-12-10T09:04:11;99848.84;;;0.25;94.35
48796;BME280;34607;48.520;-1.330;2022-12-10T09:06:41;99853.94;;;0.25;94.15
48796;BME280;34607;48.520;-1.330;2022-12-10T09:09:08;99847.97;;;0.25;94.48
48796;BME280;34607;48.520;-1.330;2022-12-10T09:11:36;99850.38;;;0.22;94.85
48796;BME280;34607;48.520;-1.330;2022-12-10T09:14:03;99855.38;;;0.20;95.35
48796;BME280;34607;48.520;-1.330;2022-12-10T09:16:32;99861.13;;;0.16;96.03
48796;BME280;34607;48.520;-1.330;2022-12-10T09:19:00;99854.38;;;0.16;95.80
48796;BME280;34607;48.520;-1.330;2022-12-10T09:21:28;99861.13;;;0.16;95.97
48796;BME280;34607;48.520;-1.330;2022-12-10T09:23:56;99860.25;;;0.15;96.10
48796;BME280;34607;48.520;-1.330;2022-12-10T09:26:23;99854.44;;;0.18;96.93
48796;BME280;34607;48.520;-1.330;2022-12-10T09:28:52;99855.28;;;0.35;96.78
48796;BME280;34607;48.520;-1.330;2022-12-10T09:31:20;99858.34;;;0.46;97.09
48796;BME280;34607;48.520;-1.330;2022-12-10T09:33:49;99842.47;;;0.33;97.53
48796;BME280;34607;48.520;-1.330;2022-12-10T09:36:17;99859.00;;;0.42;98.09
48796;BME280;34607;48.520;-1.330;2022-12-10T09:38:45;99861.97;;;0.51;98.60
48796;BME280;34607;48.520;-1.330;2022-12-10T09:41:24;99857.56;;;0.65;99.09
48796;BME280;34607;48.520;-1.330;2022-12-10T09:44:03;99863.91;;;0.91;99.39
48796;BME280;34607;48.520;-1.330;2022-12-10T09:46:42;99854.38;;;1.24;99.01
48796;BME280;34607;48.520;-1.330;2022-12-10T09:49:17;99862.25;;;1.48;98.17
48796;BME280;34607;48.520;-1.330;2022-12-10T09:51:50;99857.22;;;1.69;97.65
48796;BME280;34607;48.520;-1.330;2022-12-10T09:54:24;99857.44;;;1.94;96.60
48796;BME280;34607;48.520;-1.330;2022-12-10T09:56:53;99865.97;;;1.94;95.75
48796;BME280;34607;48.520;-1.330;2022-12-10T09:59:25;99864.13;;;1.92;95.57
48796;BME280;34607;48.520;-1.330;2022-12-10T10:02:18;99864.34;;;1.96;95.84
48796;BME280;34607;48.520;-1.330;2022-12-10T10:04:47;99869.09;;;2.08;95.52
48796;BME280;34607;48.520;-1.330;2022-12-10T10:07:19;99869.09;;;2.08;95.22
48796;BME280;34607;48.520;-1.330;2022-12-10T10:09:47;99871.72;;;2.10;95.46
48796;BME280;34607;48.520;-1.330;2022-12-10T10:12:15;99878.84;;;2.17;95.79
48796;BME280;34607;48.520;-1.330;2022-12-10T10:14:44;99877.06;;;2.16;95.35
48796;BME280;34607;48.520;-1.330;2022-12-10T10:17:16;99861.50;;;2.10;95.78
48796;BME280;34607;48.520;-1.330;2022-12-10T10:19:45;99872.72;;;2.13;96.23
48796;BME280;34607;48.520;-1.330;2022-12-10T10:22:12;99878.47;;;2.29;96.90
48796;BME280;34607;48.520;-1.330;2022-12-10T10:24:41;99877.69;;;2.51;96.43
48796;BME280;34607;48.520;-1.330;2022-12-10T10:27:13;99861.53;;;2.52;95.48
48796;BME280;34607;48.520;-1.330;2022-12-10T10:29:44;99874.25;;;2.71;95.50
48796;BME280;34607;48.520;-1.330;2022-12-10T10:32:15;99868.88;;;2.65;94.88
48796;BME280;34607;48.520;-1.330;2022-12-10T10:34:43;99863.72;;;2.63;95.77
48796;BME280;34607;48.520;-1.330;2022-12-10T10:37:19;99864.84;;;2.93;95.46
48796;BME280;34607;48.520;-1.330;2022-12-10T10:39:49;99863.72;;;3.07;95.16
48796;BME280;34607;48.520;-1.330;2022-12-10T10:42:33;99867.47;;;3.17;94.67
48796;BME280;34607;48.520;-1.330;2022-12-10T10:45:05;99864.06;;;3.16;94.71
48796;BME280;34607;48.520;-1.330;2022-12-10T10:47:34;99872.38;;;3.33;94.56
48796;BME280;34607;48.520;-1.330;2022-12-10T10:50:04;99865.63;;;3.35;93.68
48796;BME280;34607;48.520;-1.330;2022-12-10T10:52:36;99870.88;;;3.38;94.32
48796;BME280;34607;48.520;-1.330;2022-12-10T10:55:04;99862.53;;;3.44;94.38
48796;BME280;34607;48.520;-1.330;2022-12-10T10:57:34;99851.81;;;3.79;94.62
48796;BME280;34607;48.520;-1.330;2022-12-10T11:00:06;99849.69;;;4.15;93.63
48796;BME280;34607;48.520;-1.330;2022-12-10T11:02:35;99847.78;;;4.35;91.79
48796;BME280;34607;48.520;-1.330;2022-12-10T11:05:06;99844.19;;;4.83;92.01
48796;BME280;34607;48.520;-1.330;2022-12-10T11:07:36;99840.19;;;5.20;90.91
48796;BME280;34607;48.520;-1.330;2022-12-10T11:10:16;99841.63;;;5.40;88.92
48796;BME280;34607;48.520;-1.330;2022-12-10T11:12:44;99841.84;;;5.48;88.50
48796;BME280;34607;48.520;-1.330;2022-12-10T11:15:31;99832.94;;;5.35;87.77
48796;BME280;34607;48.520;-1.330;2022-12-10T11:17:59;99833.38;;;5.22;87.67
48796;BME280;34607;48.520;-1.330;2022-12-10T11:20:29;99833.75;;;5.34;88.67
48796;BME280;34607;48.520;-1.330;2022-12-10T11:22:58;99834.66;;;5.36;87.66
48796;BME280;34607;48.520;-1.330;2022-12-10T11:25:38;99833.63;;;5.31;87.92
48796;BME280;34607;48.520;-1.330;2022-12-10T11:28:23;99831.72;;;5.24;88.05
48796;BME280;34607;48.520;-1.330;2022-12-10T11:31:13;99825.84;;;5.27;87.73
48796;BME280;34607;48.520;-1.330;2022-12-10T11:33:51;99829.00;;;5.18;87.21
48796;BME280;34607;48.520;-1.330;2022-12-10T11:36:30;99821.34;;;5.19;87.37
48796;BME280;34607;48.520;-1.330;2022-12-10T11:39:11;99803.03;;;5.09;86.51
48796;BME280;34607;48.520;-1.330;2022-12-10T11:41:51;99814.84;;;5.32;86.71
48796;BME280;34607;48.520;-1.330;2022-12-10T11:44:25;99824.72;;;5.47;86.08
48796;BME280;34607;48.520;-1.330;2022-12-10T11:47:11;99825.66;;;5.51;85.39
48796;BME280;34607;48.520;-1.330;2022-12-10T11:49:51;99812.44;;;5.69;84.37
48796;BME280;34607;48.520;-1.330;2022-12-10T11:52:34;99818.91;;;5.54;83.26
48796;BME280;34607;48.520;-1.330;2022-12-10T11:55:10;99808.44;;;5.48;83.58
48796;BME280;34607;48.520;-1.330;2022-12-10T11:57:44;99811.94;;;5.82;84.42
48796;BME280;34607;48.520;-1.330;2022-12-10T12:00:19;99801.84;;;6.22;83.61
48796;BME280;34607;48.520;-1.330;2022-12-10T12:03:20;99814.16;;;6.70;83.06
48796;BME280;34607;48.520;-1.330;2022-12-10T12:06:03;99807.16;;;7.02;81.73
48796;BME280;34607;48.520;-1.330;2022-12-10T12:08:41;99807.91;;;7.38;80.49
48796;BME280;34607;48.520;-1.330;2022-12-10T12:11:21;99805.06;;;7.66;79.25
48796;BME280;34607;48.520;-1.330;2022-12-10T12:13:59;99798.84;;;7.57;77.22
48796;BME280;34607;48.520;-1.330;2022-12-10T12:16:31;99804.50;;;7.84;78.78
48796;BME280;34607;48.520;-1.330;2022-12-10T12:19:05;99801.91;;;7.81;77.36
48796;BME280;34607;48.520;-1.330;2022-12-10T12:21:36;99788.03;;;7.75;78.05
48796;BME280;34607;48.520;-1.330;2022-12-10T12:24:09;99799.00;;;7.64;77.41
48796;BME280;34607;48.520;-1.330;2022-12-10T12:26:42;99782.06;;;7.33;78.42
48796;BME280;34607;48.520;-1.330;2022-12-10T12:29:16;99803.28;;;7.20;78.83
48796;BME280;34607;48.520;-1.330;2022-12-10T12:31:47;99781.63;;;7.11;79.60
48796;BME280;34607;48.520;-1.330;2022-12-10T12:34:26;99794.88;;;7.28;79.26
48796;BME280;34607;48.520;-1.330;2022-12-10T12:36:55;99801.31;;;7.50;78.83
48796;BME280;34607;48.520;-1.330;2022-12-10T12:39:27;99801.63;;;7.67;78.88
48796;BME280;34607;48.520;-1.330;2022-12-10T12:42:02;99796.03;;;7.92;78.78
48796;BME280;34607;48.520;-1.330;2022-12-10T12:44:45;99783.50;;;8.12;78.50
48796;BME280;34607;48.520;-1.330;2022-12-10T12:47:22;99792.00;;;8.04;78.10
48796;BME280;34607;48.520;-1.330;2022-12-10T12:49:59;99790.78;;;7.84;78.56
48796;BME280;34607;48.520;-1.330;2022-12-10T12:52:32;99791.22;;;7.61;78.45
48796;BME280;34607;48.520;-1.330;2022-12-10T12:55:11;99789.78;;;7.33;79.28
48796;BME280;34607;48.520;-1.330;2022-12-10T12:57:45;99786.38;;;6.93;79.62
48796;BME280;34607;48.520;-1.330;2022-12-10T13:00:16;99778.69;;;6.94;80.85
48796;BME280;34607;48.520;-1.330;2022-12-10T13:02:54;99785.22;;;7.18;80.92
48796;BME280;34607;48.520;-1.330;2022-12-10T13:05:28;99785.34;;;7.26;80.44
48796;BME280;34607;48.520;-1.330;2022-12-10T13:08:23;99783.59;;;7.23;79.10
48796;BME280;34607;48.520;-1.330;2022-12-10T13:10:52;99792.72;;;7.09;78.92
48796;BME280;34607;48.520;-1.330;2022-12-10T13:13:24;99790.84;;;7.02;79.83
48796;BME280;34607;48.520;-1.330;2022-12-10T13:15:53;99781.38;;;7.01;80.13
48796;BME280;34607;48.520;-1.330;2022-12-10T13:18:33;99786.94;;;7.19;80.06
48796;BME280;34607;48.520;-1.330;2022-12-10T13:21:29;99774.69;;;7.09;78.81
48796;BME280;34607;48.520;-1.330;2022-12-10T13:24:09;99772.97;;;7.08;78.95
48796;BME280;34607;48.520;-1.330;2022-12-10T13:26:41;99785.25;;;7.21;79.05
48796;BME280;34607;48.520;-1.330;2022-12-10T13:29:28;99785.56;;;7.37;79.24
48796;BME280;34607;48.520;-1.330;2022-12-10T13:32:01;99790.69;;;7.34;78.53
48796;BME280;34607;48.520;-1.330;2022-12-10T13:34:34;99784.63;;;7.33;78.34
48796;BME280;34607;48.520;-1.330;2022-12-10T13:37:15;99786.19;;;7.23;77.90
48796;BME280;34607;48.520;-1.330;2022-12-10T13:39:47;99788.69;;;7.20;78.01
48796;BME280;34607;48.520;-1.330;2022-12-10T13:42:36;99780.88;;;7.17;77.33
48796;BME280;34607;48.520;-1.330;2022-12-10T13:45:27;99778.94;;;7.07;77.35
48796;BME280;34607;48.520;-1.330;2022-12-10T13:48:16;99769.19;;;6.92;77.03
48796;BME280;34607;48.520;-1.330;2022-12-10T13:50:46;99782.69;;;6.82;77.18
48796;BME280;34607;48.520;-1.330;2022-12-10T13:53:24;99774.03;;;6.78;77.45
48796;BME280;34607;48.520;-1.330;2022-12-10T13:55:59;99772.31;;;6.77;76.95
48796;BME280;34607;48.520;-1.330;2022-12-10T13:58:44;99769.59;;;6.71;76.41
48796;BME280;34607;48.520;-1.330;2022-12-10T14:01:19;99778.22;;;6.73;76.63
48796;BME280;34607;48.520;-1.330;2022-12-10T14:03:59;99771.47;;;6.78;76.46
48796;BME280;34607;48.520;-1.330;2022-12-10T14:06:32;99764.59;;;6.77;76.20
48796;BME280;34607;48.520;-1.330;2022-12-10T14:09:04;99775.00;;;6.83;76.09
48796;BME280;34607;48.520;-1.330;2022-12-10T14:11:35;99767.09;;;6.74;75.79
48796;BME280;34607;48.520;-1.330;2022-12-10T14:14:05;99771.47;;;6.78;76.18
48796;BME280;34607;48.520;-1.330;2022-12-10T14:16:34;99767.97;;;6.74;76.32
48796;BME280;34607;48.520;-1.330;2022-12-10T14:19:04;99770.50;;;6.73;75.89
48796;BME280;34607;48.520;-1.330;2022-12-10T14:21:34;99766.88;;;6.65;76.21
48796;BME280;34607;48.520;-1.330;2022-12-10T14:24:04;99772.09;;;6.68;76.54
48796;BME280;34607;48.520;-1.330;2022-12-10T14:26:32;99771.06;;;6.61;76.61
48796;BME280;34607;48.520;-1.330;2022-12-10T14:29:01;99776.81;;;6.48;76.87
48796;BME280;34607;48.520;-1.330;2022-12-10T14:31:31;99780.47;;;6.23;76.78
48796;BME280;34607;48.520;-1.330;2022-12-10T14:34:01;99770.72;;;6.09;77.10
48796;BME280;34607;48.520;-1.330;2022-12-10T14:36:31;99777.28;;;5.98;77.18
48796;BME280;34607;48.520;-1.330;2022-12-10T14:39:00;99777.34;;;6.01;77.69
48796;BME280;34607;48.520;-1.330;2022-12-10T14:41:31;99774.53;;;5.92;77.35
48796;BME280;34607;48.520;-1.330;2022-12-10T14:44:02;99777.84;;;5.88;77.60
48796;BME280;34607;48.520;-1.330;2022-12-10T14:46:31;99782.66;;;5.75;77.80
48796;BME280;34607;48.520;-1.330;2022-12-10T14:48:58;99784.13;;;5.67;77.93
48796;BME280;34607;48.520;-1.330;2022-12-10T14:51:32;99778.72;;;5.56;78.65
48796;BME280;34607;48.520;-1.330;2022-12-10T14:54:00;99782.06;;;5.52;78.66
48796;BME280;34607;48.520;-1.330;2022-12-10T14:56:31;99770.78;;;5.47;79.00
48796;BME280;34607;48.520;-1.330;2022-12-10T14:59:04;99766.22;;;5.37;79.51
48796;BME280;34607;48.520;-1.330;2022-12-10T15:01:34;99779.81;;;5.34;80.05
48796;BME280;34607;48.520;-1.330;2022-12-10T15:04:04;99777.22;;;5.33;80.12
48796;BME280;34607;48.520;-1.330;2022-12-10T15:06:34;99778.91;;;5.32;80.33
48796;BME280;34607;48.520;-1.330;2022-12-10T15:09:04;99779.91;;;5.37;80.33
48796;BME280;34607;48.520;-1.330;2022-12-10T15:11:33;99784.84;;;5.30;80.63
48796;BME280;34607;48.520;-1.330;2022-12-10T15:14:02;99784.66;;;5.23;80.90
48796;BME280;34607;48.520;-1.330;2022-12-10T15:16:37;99777.66;;;5.18;80.73
48796;BME280;34607;48.520;-1.330;2022-12-10T15:19:15;99784.53;;;5.19;80.94
48796;BME280;34607;48.520;-1.330;2022-12-10T15:21:44;99788.34;;;5.03;81.24
48796;BME280;34607;48.520;-1.330;2022-12-10T15:24:16;99790.66;;;4.94;81.92
48796;BME280;34607;48.520;-1.330;2022-12-10T15:26:47;99793.78;;;4.83;81.85
48796;BME280;34607;48.520;-1.330;2022-12-10T15:32:01;99794.47;;;4.79;81.99
48796;BME280;34607;48.520;-1.330;2022-12-10T15:34:36;99797.00;;;4.78;82.13
48796;BME280;34607;48.520;-1.330;2022-12-10T15:37:05;99800.41;;;4.77;81.83
48796;BME280;34607;48.520;-1.330;2022-12-10T15:39:45;99804.38;;;4.67;82.37
48796;BME280;34607;48.520;-1.330;2022-12-10T15:42:30;99804.94;;;4.58;82.23
48796;BME280;34607;48.520;-1.330;2022-12-10T15:44:59;99810.28;;;4.37;82.11
48796;BME280;34607;48.520;-1.330;2022-12-10T15:47:27;99812.22;;;4.44;83.21
48796;BME280;34607;48.520;-1.330;2022-12-10T15:49:55;99802.81;;;4.45;83.08
48796;BME280;34607;48.520;-1.330;2022-12-10T15:52:24;99807.88;;;4.43;82.63
48796;BME280;34607;48.520;-1.330;2022-12-10T15:54:53;99806.63;;;4.30;83.08
48796;BME280;34607;48.520;-1.330;2022-12-10T15:57:22;99792.47;;;4.16;82.80
48796;BME280;34607;48.520;-1.330;2022-12-10T15:59:53;99809.59;;;4.17;82.72
48796;BME280;34607;48.520;-1.330;2022-12-10T16:02:34;99811.91;;;4.09;83.19
48796;BME280;34607;48.520;-1.330;2022-12-10T16:05:03;99809.97;;;4.02;82.99
48796;BME280;34607;48.520;-1.330;2022-12-10T16:07:36;99814.00;;;3.96;83.00
48796;BME280;34607;48.520;-1.330;2022-12-10T16:10:05;99808.78;;;3.92;83.04
48796;BME280;34607;48.520;-1.330;2022-12-10T16:12:33;99803.34;;;3.83;83.08
48796;BME280;34607;48.520;-1.330;2022-12-10T16:15:04;99806.41;;;3.73;83.18
48796;BME280;34607;48.520;-1.330;2022-12-10T16:17:31;99798.47;;;3.65;83.17
48796;BME280;34607;48.520;-1.330;2022-12-10T16:19:59;99806.72;;;3.58;83.52
48796;BME280;34607;48.520;-1.330;2022-12-10T16:22:27;99805.66;;;3.51;83.44
48796;BME280;34607;48.520;-1.330;2022-12-10T16:24:54;99805.44;;;3.45;83.78
48796;BME280;34607;48.520;-1.330;2022-12-10T16:27:21;99801.81;;;3.40;84.20
48796;BME280;34607;48.520;-1.330;2022-12-10T16:29:48;99805.19;;;3.39;84.36
48796;BME280;34607;48.520;-1.330;2022-12-10T16:32:17;99812.81;;;3.37;84.19
48796;BME280;34607;48.520;-1.330;2022-12-10T16:34:44;99808.47;;;3.35;84.53
48796;BME280;34607;48.520;-1.330;2022-12-10T16:37:13;99803.03;;;3.26;84.47
48796;BME280;34607;48.520;-1.330;2022-12-10T16:39:40;99812.38;;;3.25;84.81
48796;BME280;34607;48.520;-1.330;2022-12-10T16:42:08;99806.38;;;3.25;84.68
48796;BME280;34607;48.520;-1.330;2022-12-10T16:44:37;99803.03;;;3.26;84.68
48796;BME280;34607;48.520;-1.330;2022-12-10T16:47:10;99804.63;;;3.24;84.69
48796;BME280;34607;48.520;-1.330;2022-12-10T16:49:39;99812.25;;;3.22;85.12
48796;BME280;34607;48.520;-1.330;2022-12-10T16:52:06;99790.59;;;3.12;85.02
48796;BME280;34607;48.520;-1.330;2022-12-10T16:54:33;99802.66;;;3.16;85.43
48796;BME280;34607;48.520;-1.330;2022-12-10T16:57:00;99802.66;;;3.16;85.41
48796;BME280;34607;48.520;-1.330;2022-12-10T16:59:27;99807.19;;;3.24;85.23
48796;BME280;34607;48.520;-1.330;2022-12-10T17:01:54;99799.19;;;3.14;85.24
48796;BME280;34607;48.520;-1.330;2022-12-10T17:04:21;99798.09;;;3.08;85.28
48796;BME280;34607;48.520;-1.330;2022-12-10T17:06:50;99797.16;;;3.06;85.64
48796;BME280;34607;48.520;-1.330;2022-12-10T17:09:17;99792.63;;;2.98;86.23
48796;BME280;34607;48.520;-1.330;2022-12-10T17:11:44;99800.59;;;2.84;86.89
48796;BME280;34607;48.520;-1.330;2022-12-10T17:14:18;99795.22;;;2.77;87.16
48796;BME280;34607;48.520;-1.330;2022-12-10T17:16:46;99793.91;;;2.65;87.94
48796;BME280;34607;48.520;-1.330;2022-12-10T17:19:14;99798.66;;;2.55;88.63
48796;BME280;34607;48.520;-1.330;2022-12-10T17:21:41;99774.72;;;2.32;89.22
48796;BME280;34607;48.520;-1.330;2022-12-10T17:24:09;99796.28;;;2.39;89.52
48796;BME280;34607;48.520;-1.330;2022-12-10T17:26:39;99776.09;;;2.24;89.63
48796;BME280;34607;48.520;-1.330;2022-12-10T17:29:13;99795.97;;;2.31;89.87
48796;BME280;34607;48.520;-1.330;2022-12-10T17:31:40;99796.59;;;2.25;89.84
48796;BME280;34607;48.520;-1.330;2022-12-10T17:34:09;99790.75;;;2.28;89.74
48796;BME280;34607;48.520;-1.330;2022-12-10T17:36:37;99802.84;;;2.32;89.86
48796;BME280;34607;48.520;-1.330;2022-12-10T17:39:04;99774.13;;;2.17;90.01
48796;BME280;34607;48.520;-1.330;2022-12-10T17:41:32;99802.69;;;2.29;89.89
48796;BME280;34607;48.520;-1.330;2022-12-10T17:44:00;99784.25;;;2.15;90.28
48796;BME280;34607;48.520;-1.330;2022-12-10T17:46:27;99798.84;;;2.18;90.98
48796;BME280;34607;48.520;-1.330;2022-12-10T17:48:54;99802.91;;;2.13;91.89
48796;BME280;34607;48.520;-1.330;2022-12-10T17:51:21;99794.47;;;2.15;91.51
48796;BME280;34607;48.520;-1.330;2022-12-10T17:53:48;99786.69;;;2.12;92.20
48796;BME280;34607;48.520;-1.330;2022-12-10T17:56:17;99782.28;;;2.08;92.53
48796;BME280;34607;48.520;-1.330;2022-12-10T17:58:46;99789.88;;;2.06;92.57
48796;BME280;34607;48.520;-1.330;2022-12-10T18:01:14;99794.19;;;2.08;92.54
48796;BME280;34607;48.520;-1.330;2022-12-10T18:03:42;99794.91;;;2.05;92.43
48796;BME280;34607;48.520;-1.330;2022-12-10T18:06:13;99795.78;;;2.05;92.00
48796;BME280;34607;48.520;-1.330;2022-12-10T18:08:40;99793.00;;;1.99;92.74
48796;BME280;34607;48.520;-1.330;2022-12-10T18:11:09;99789.59;;;2.00;92.39
48796;BME280;34607;48.520;-1.330;2022-12-10T18:13:37;99796.16;;;1.94;92.81
48796;BME280;34607;48.520;-1.330;2022-12-10T18:16:10;99792.34;;;1.84;93.27
48796;BME280;34607;48.520;-1.330;2022-12-10T18:18:38;99801.28;;;1.74;93.69
48796;BME280;34607;48.520;-1.330;2022-12-10T18:21:05;99799.59;;;1.75;93.88
48796;BME280;34607;48.520;-1.330;2022-12-10T18:23:33;99798.34;;;1.65;94.42
48796;BME280;34607;48.520;-1.330;2022-12-10T18:26:00;99807.06;;;1.70;94.56
48796;BME280;34607;48.520;-1.330;2022-12-10T18:28:50;99798.22;;;1.62;94.59
48796;BME280;34607;48.520;-1.330;2022-12-10T18:31:23;99806.00;;;1.65;94.48
48796;BME280;34607;48.520;-1.330;2022-12-10T18:33:55;99806.59;;;1.59;94.93
48796;BME280;34607;48.520;-1.330;2022-12-10T18:36:25;99802.44;;;1.61;94.93
48796;BME280;34607;48.520;-1.330;2022-12-10T18:38:54;99809.81;;;1.55;95.68
48796;BME280;34607;48.520;-1.330;2022-12-10T18:41:22;99810.84;;;1.59;94.94
48796;BME280;34607;48.520;-1.330;2022-12-10T18:43:50;99810.84;;;1.59;94.74
48796;BME280;34607;48.520;-1.330;2022-12-10T18:46:20;99813.59;;;1.63;94.74
48796;BME280;34607;48.520;-1.330;2022-12-10T18:48:48;99812.59;;;1.60;94.93
48796;BME280;34607;48.520;-1.330;2022-12-10T18:51:15;99801.25;;;1.53;94.36
48796;BME280;34607;48.520;-1.330;2022-12-10T18:53:44;99805.50;;;1.54;94.83
48796;BME280;34607;48.520;-1.330;2022-12-10T18:56:13;99791.66;;;1.47;94.93
48796;BME280;34607;48.520;-1.330;2022-12-10T18:58:41;99797.63;;;1.48;95.38
48796;BME280;34607;48.520;-1.330;2022-12-10T19:01:10;99797.47;;;1.45;95.26
48796;BME280;34607;48.520;-1.330;2022-12-10T19:03:39;99800.22;;;1.49;95.43
48796;BME280;34607;48.520;-1.330;2022-12-10T19:06:12;99802.56;;;1.45;95.77
48796;BME280;34607;48.520;-1.330;2022-12-10T19:08:39;99807.69;;;1.45;95.79
48796;BME280;34607;48.520;-1.330;2022-12-10T19:11:07;99802.44;;;1.42;95.78
48796;BME280;34607;48.520;-1.330;2022-12-10T19:13:34;99797.34;;;1.42;95.61
48796;BME280;34607;48.520;-1.330;2022-12-10T19:16:01;99798.88;;;1.38;96.12
48796;BME280;34607;48.520;-1.330;2022-12-10T19:18:29;99793.78;;;1.38;96.52
48796;BME280;34607;48.520;-1.330;2022-12-10T19:20:58;99797.19;;;1.39;95.94
48796;BME280;34607;48.520;-1.330;2022-12-10T19:23:25;99802.13;;;1.34;96.97
48796;BME280;34607;48.520;-1.330;2022-12-10T19:25:52;99796.13;;;1.34;97.02
48796;BME280;34607;48.520;-1.330;2022-12-10T19:28:20;99783.25;;;1.30;96.78
48796;BME280;34607;48.520;-1.330;2022-12-10T19:30:47;99789.28;;;1.33;96.55
48796;BME280;34607;48.520;-1.330;2022-12-10T19:33:14;99785.91;;;1.34;96.24
48796;BME280;34607;48.520;-1.330;2022-12-10T19:35:41;99784.59;;;1.22;96.99
48796;BME280;34607;48.520;-1.330;2022-12-10T19:38:11;99776.56;;;1.15;97.28
48796;BME280;34607;48.520;-1.330;2022-12-10T19:40:40;99777.81;;;1.23;97.12
48796;BME280;34607;48.520;-1.330;2022-12-10T19:43:07;99781.50;;;1.29;96.40
48796;BME280;34607;48.520;-1.330;2022-12-10T19:45:34;99779.63;;;1.25;95.79
48796;BME280;34607;48.520;-1.330;2022-12-10T19:48:01;99776.94;;;1.22;95.85
48796;BME280;34607;48.520;-1.330;2022-12-10T19:50:31;99777.72;;;1.21;95.70
48796;BME280;34607;48.520;-1.330;2022-12-10T19:53:00;99760.19;;;1.09;96.08
48796;BME280;34607;48.520;-1.330;2022-12-10T19:55:29;99779.47;;;1.22;95.60
48796;BME280;34607;48.520;-1.330;2022-12-10T19:57:56;99760.81;;;1.04;95.36
48796;BME280;34607;48.520;-1.330;2022-12-10T20:00:25;99772.22;;;1.12;95.80
48796;BME280;34607;48.520;-1.330;2022-12-10T20:02:53;99763.56;;;1.08;95.79
48796;BME280;34607;48.520;-1.330;2022-12-10T20:05:20;99765.72;;;1.19;95.21
48796;BME280;34607;48.520;-1.330;2022-12-10T20:07:48;99765.50;;;1.14;95.13
48796;BME280;34607;48.520;-1.330;2022-12-10T20:10:18;99762.19;;;1.15;94.67
48796;BME280;34607;48.520;-1.330;2022-12-10T20:12:48;99753.84;;;1.00;94.89
48796;BME280;34607;48.520;-1.330;2022-12-10T20:15:16;99760.13;;;1.08;94.71
48796;BME280;34607;48.520;-1.330;2022-12-10T20:17:43;99738.41;;;0.97;94.53
48796;BME280;34607;48.520;-1.330;2022-12-10T20:20:19;99750.47;;;1.01;94.57
48796;BME280;34607;48.520;-1.330;2022-12-10T20:22:46;99754.63;;;0.99;94.54
48796;BME280;34607;48.520;-1.330;2022-12-10T20:25:15;99757.19;;;0.99;94.64
48796;BME280;34607;48.520;-1.330;2022-12-10T20:27:42;99756.41;;;1.00;94.18
48796;BME280;34607;48.520;-1.330;2022-12-10T20:30:14;99756.97;;;0.94;94.33
48796;BME280;34607;48.520;-1.330;2022-12-10T20:32:44;99737.84;;;0.84;94.22
48796;BME280;34607;48.520;-1.330;2022-12-10T20:35:12;99757.94;;;0.96;94.10
48796;BME280;34607;48.520;-1.330;2022-12-10T20:37:40;99754.31;;;0.91;94.17
48796;BME280;34607;48.520;-1.330;2022-12-10T20:40:11;99750.72;;;0.87;94.13
48796;BME280;34607;48.520;-1.330;2022-12-10T20:42:40;99742.50;;;0.75;93.74
48796;BME280;34607;48.520;-1.330;2022-12-10T20:45:07;99754.88;;;0.85;93.76
48796;BME280;34607;48.520;-1.330;2022-12-10T20:47:36;99752.47;;;0.88;93.88
48796;BME280;34607;48.520;-1.330;2022-12-10T20:50:04;99751.91;;;0.76;93.70
48796;BME280;34607;48.520;-1.330;2022-12-10T20:52:34;99746.81;;;0.76;93.85
48796;BME280;34607;48.520;-1.330;2022-12-10T20:55:01;99737.88;;;0.66;93.89
48796;BME280;34607;48.520;-1.330;2022-12-10T20:57:29;99745.00;;;0.73;93.52
48796;BME280;34607;48.520;-1.330;2022-12-10T20:59:57;99741.81;;;0.78;93.75
48796;BME280;34607;48.520;-1.330;2022-12-10T21:02:24;99745.28;;;0.80;93.08
48796;BME280;34607;48.520;-1.330;2022-12-10T21:04:53;99738.50;;;0.80;93.28
48796;BME280;34607;48.520;-1.330;2022-12-10T21:07:20;99737.28;;;0.72;93.04
48796;BME280;34607;48.520;-1.330;2022-12-10T21:09:48;99721.66;;;0.64;93.10
48796;BME280;34607;48.520;-1.330;2022-12-10T21:12:15;99749.31;;;0.74;92.97
48796;BME280;34607;48.520;-1.330;2022-12-10T21:14:42;99760.81;;;0.66;92.86
48796;BME280;34607;48.520;-1.330;2022-12-10T21:17:10;99759.09;;;0.65;92.96
48796;BME280;34607;48.520;-1.330;2022-12-10T21:19:38;99751.94;;;0.58;93.41
48796;BME280;34607;48.520;-1.330;2022-12-10T21:22:09;99765.19;;;0.69;93.00
48796;BME280;34607;48.520;-1.330;2022-12-10T21:24:36;99753.25;;;0.68;92.89